Time;durP1;ratioP1;P1;durP2;ratioP2;P2;SDS_P1;SDS_P2;PMS_P1;PMS_P2;Temp;Humidity;BMP_temperature;BMP_pressure;BME280_temperature;BME280_humidity;BME280_pressure;Samples;Min_cycle;Max_cycle;Signal;HPM_P1;HPM_P2
2023/04/11 00:00:04;;;;;;;2.72;0.95;;;18.00;99.90;;;;;;4958547;29;20555;-78
2023/04/11 00:02:37;;;;;;;3.53;1.10;;;18.10;99.90;;;;;;4958497;29;20703;-78
2023/04/11 00:05:09;;;;;;;3.78;1.05;;;18.20;99.90;;;;;;4958420;29;20231;-78
2023/04/11 00:07:42;;;;;;;1.40;0.95;;;18.30;99.90;;;;;;4958589;29;20193;-78
2023/04/11 00:10:13;;;;;;;3.55;0.85;;;18.30;99.90;;;;;;4955937;29;20189;-79
2023/04/11 00:12:45;;;;;;;5.50;1.30;;;18.40;99.90;;;;;;4947535;29;20211;-83
2023/04/11 00:15:16;;;;;;;1.98;1.00;;;18.50;99.90;;;;;;4958191;29;20193;-76
2023/04/11 00:17:47;;;;;;;2.97;1.08;;;18.50;99.90;;;;;;4944818;29;20638;-78
2023/04/11 00:20:18;;;;;;;3.67;1.00;;;18.50;99.90;;;;;;4939310;29;20198;-78
2023/04/11 00:22:52;;;;;;;2.63;0.95;;;18.60;99.90;;;;;;4956068;29;20213;-78
2023/04/11 00:25:24;;;;;;;2.28;0.90;;;18.50;99.90;;;;;;4958253;29;20752;-79
2023/04/11 00:27:55;;;;;;;2.20;0.80;;;18.40;99.90;;;;;;4958448;28;20193;-78
2023/04/11 00:30:26;;;;;;;3.35;1.10;;;18.60;99.90;;;;;;4940588;28;20194;-77
2023/04/11 00:32:57;;;;;;;2.38;0.80;;;18.60;99.90;;;;;;4938984;29;20198;-79
2023/04/11 00:35:28;;;;;;;3.28;0.90;;;18.70;99.90;;;;;;4939204;29;20198;-77
2023/04/11 00:38:02;;;;;;;1.88;0.75;;;18.70;99.90;;;;;;4938873;29;20190;-79
2023/04/11 00:40:33;;;;;;;2.55;0.85;;;18.80;99.90;;;;;;4938832;29;20202;-79
2023/04/11 00:43:04;;;;;;;3.55;1.15;;;18.90;99.90;;;;;;4938856;29;20194;-78
2023/04/11 00:45:36;;;;;;;4.65;1.02;;;19.00;99.90;;;;;;4938502;29;20685;-78
2023/04/11 00:48:07;;;;;;;4.35;1.10;;;19.20;99.90;;;;;;4938554;29;20229;-79
2023/04/11 00:50:43;;;;;;;3.03;1.08;;;19.40;99.90;;;;;;4938696;29;20680;-78
2023/04/11 00:53:17;;;;;;;4.85;1.17;;;19.50;99.90;;;;;;4938562;29;20216;-78
2023/04/11 00:55:48;;;;;;;2.67;0.80;;;19.40;99.90;;;;;;4938379;29;20237;-78
2023/04/11 00:58:19;;;;;;;2.25;1.00;;;19.40;99.90;;;;;;4938302;29;20226;-78
2023/04/11 01:00:51;;;;;;;2.15;0.90;;;19.40;99.90;;;;;;4937050;29;20197;-82
2023/04/11 01:03:22;;;;;;;5.32;1.10;;;19.50;99.90;;;;;;4938516;29;20662;-78
2023/04/11 01:05:54;;;;;;;1.80;0.90;;;19.70;99.90;;;;;;4947148;29;20763;-79
2023/04/11 01:08:29;;;;;;;4.70;1.00;;;19.80;99.90;;;;;;4957353;29;20193;-79
2023/04/11 01:11:01;;;;;;;1.33;0.70;;;19.90;99.90;;;;;;4957388;28;20255;-78
2023/04/11 01:13:34;;;;;;;2.70;0.93;;;19.90;99.90;;;;;;4957059;29;20200;-79
2023/04/11 01:16:05;;;;;;;2.45;0.77;;;19.90;99.90;;;;;;4957186;29;20208;-78
2023/04/11 01:18:36;;;;;;;2.28;0.90;;;20.10;99.90;;;;;;4957407;28;20560;-78
2023/04/11 01:21:08;;;;;;;2.50;0.80;;;20.30;99.90;;;;;;4957632;28;20200;-78
2023/04/11 01:23:41;;;;;;;1.83;0.70;;;20.40;99.90;;;;;;4957541;28;20219;-78
2023/04/11 01:26:12;;;;;;;3.03;0.73;;;20.50;99.90;;;;;;4957007;29;20224;-78
2023/04/11 01:28:43;;;;;;;2.70;1.00;;;20.70;99.90;;;;;;4956812;29;20197;-77
2023/04/11 01:31:14;;;;;;;2.40;0.73;;;20.70;99.90;;;;;;4957350;29;20193;-78
2023/04/11 01:33:45;;;;;;;1.35;1.02;;;20.70;99.90;;;;;;4956946;29;20204;-77
2023/04/11 01:36:16;;;;;;;3.75;1.38;;;20.90;99.90;;;;;;4956955;29;20196;-78
2023/04/11 01:38:49;;;;;;;2.45;0.80;;;20.80;99.90;;;;;;4957090;28;20560;-78
2023/04/11 01:41:21;;;;;;;1.95;0.77;;;20.80;99.90;;;;;;4956776;28;20192;-78
2023/04/11 01:43:53;;;;;;;1.33;0.60;;;20.90;99.90;;;;;;4956951;29;20197;-78
2023/04/11 01:46:25;;;;;;;2.60;0.90;;;21.10;99.90;;;;;;4956953;28;20221;-78
2023/04/11 01:48:58;;;;;;;2.03;0.80;;;21.20;99.90;;;;;;4956820;28;20224;-78
2023/04/11 01:51:29;;;;;;;1.65;0.85;;;21.30;99.90;;;;;;4954454;29;20225;-79
2023/04/11 01:54:02;;;;;;;1.75;0.60;;;21.30;99.90;;;;;;4951688;29;20667;-78
2023/04/11 01:56:33;;;;;;;4.97;1.10;;;21.10;99.90;;;;;;4955976;28;20719;-79
2023/04/11 01:59:04;;;;;;;3.15;0.70;;;21.00;99.90;;;;;;4967545;28;20563;-79
2023/04/11 02:01:36;;;;;;;2.80;0.80;;;20.90;99.90;;;;;;4956719;28;20303;-79
2023/04/11 02:04:07;;;;;;;3.13;0.73;;;20.80;99.90;;;;;;4950798;28;20320;-79
2023/04/11 02:06:38;;;;;;;2.08;0.80;;;20.70;99.90;;;;;;4955495;29;20232;-79
2023/04/11 02:09:11;;;;;;;2.78;0.90;;;20.70;99.90;;;;;;4953320;28;20674;-79
2023/04/11 02:11:42;;;;;;;3.05;0.90;;;20.70;99.90;;;;;;4954352;28;20200;-78
2023/04/11 02:14:15;;;;;;;4.53;1.00;;;20.60;99.90;;;;;;4953804;28;20205;-79
2023/04/11 02:16:56;;;;;;;5.60;0.90;;;20.60;99.90;;;;;;4951559;29;20229;-78
2023/04/11 02:19:34;;;;;;;3.80;0.80;;;20.60;99.90;;;;;;4948540;29;20668;-78
2023/04/11 02:22:05;;;;;;;5.55;1.20;;;20.60;99.90;;;;;;4952872;29;20287;-80
2023/04/11 02:24:38;;;;;;;2.72;1.08;;;20.60;99.90;;;;;;4950951;29;20679;-80
2023/04/11 02:27:10;;;;;;;4.22;0.98;;;20.70;99.90;;;;;;4940040;28;20574;-79
2023/04/11 02:29:41;;;;;;;5.25;1.00;;;20.90;99.90;;;;;;4950009;29;20413;-78
2023/04/11 02:32:12;;;;;;;2.85;1.02;;;21.10;99.90;;;;;;4954767;28;20212;-78
2023/04/11 02:34:43;;;;;;;4.13;0.80;;;21.40;99.90;;;;;;4953999;28;20200;-79
2023/04/11 02:37:14;;;;;;;4.13;0.93;;;21.50;99.90;;;;;;4950212;29;20200;-79
2023/04/11 02:39:47;;;;;;;2.30;0.70;;;21.60;99.90;;;;;;4955187;28;20212;-79
2023/04/11 02:42:18;;;;;;;3.33;0.88;;;21.70;99.90;;;;;;4954595;28;20207;-80
2023/04/11 02:44:49;;;;;;;5.13;0.80;;;21.80;99.90;;;;;;4953236;28;20217;-78
2023/04/11 02:47:20;;;;;;;5.25;0.80;;;21.90;99.90;;;;;;4951722;29;20208;-79
2023/04/11 02:49:51;;;;;;;4.82;1.02;;;21.90;99.90;;;;;;4955827;28;20193;-78
2023/04/11 02:52:23;;;;;;;3.28;0.80;;;21.90;99.90;;;;;;4954548;28;20211;-80
2023/04/11 02:54:56;;;;;;;4.97;0.88;;;22.00;99.90;;;;;;4955188;29;20232;-80
2023/04/11 02:57:27;;;;;;;3.70;0.75;;;22.00;99.90;;;;;;4952416;28;20197;-78
2023/04/11 02:59:58;;;;;;;1.42;0.63;;;22.00;99.90;;;;;;4954816;29;20688;-80
2023/04/11 03:02:29;;;;;;;6.63;0.93;;;22.10;99.90;;;;;;4955332;28;20280;-81
2023/04/11 03:05:02;;;;;;;6.50;0.82;;;22.00;99.90;;;;;;4953252;28;20311;-80
2023/04/11 03:07:37;;;;;;;2.42;0.65;;;22.10;99.90;;;;;;4951023;29;20682;-77
2023/04/11 03:10:11;;;;;;;5.70;0.70;;;22.10;99.90;;;;;;4954162;29;20222;-80
2023/04/11 03:12:42;;;;;;;2.72;0.75;;;22.00;99.90;;;;;;4953637;28;20662;-80
2023/04/11 03:15:14;;;;;;;3.63;0.82;;;21.90;99.90;;;;;;4955294;29;20278;-77
2023/04/11 03:17:45;;;;;;;3.00;0.80;;;21.90;99.90;;;;;;4952563;28;20201;-79
2023/04/11 03:20:18;;;;;;;3.20;0.75;;;21.90;99.90;;;;;;4953808;29;20204;-79
2023/04/11 03:22:49;;;;;;;3.20;0.85;;;21.90;99.90;;;;;;4953675;29;20220;-79
2023/04/11 03:25:22;;;;;;;2.67;0.80;;;21.90;99.90;;;;;;4955059;28;20275;-78
2023/04/11 03:27:53;;;;;;;2.85;0.70;;;22.00;99.90;;;;;;4948509;29;20208;-79
2023/04/11 03:30:24;;;;;;;2.92;0.80;;;22.10;99.90;;;;;;4949424;29;20197;-79
2023/04/11 03:32:59;;;;;;;3.33;0.80;;;22.10;99.90;;;;;;4954481;29;20201;-78
2023/04/11 03:35:30;;;;;;;5.47;1.00;;;22.10;99.90;;;;;;4953596;28;20207;-78
2023/04/11 03:38:01;;;;;;;5.93;0.98;;;22.00;99.90;;;;;;4951026;28;20204;-78
2023/04/11 03:40:34;;;;;;;3.08;0.70;;;22.00;99.90;;;;;;4953807;29;20217;-78
2023/04/11 03:43:05;;;;;;;2.25;0.82;;;22.00;99.90;;;;;;4951952;28;20197;-78
2023/04/11 03:45:37;;;;;;;4.13;0.80;;;22.00;99.90;;;;;;4952430;29;20223;-78
2023/04/11 03:48:08;;;;;;;3.15;0.85;;;21.90;99.90;;;;;;4952404;29;20197;-78
2023/04/11 03:50:39;;;;;;;3.13;0.95;;;21.80;99.90;;;;;;4953818;28;20207;-78
2023/04/11 03:53:10;;;;;;;3.08;0.93;;;21.80;99.90;;;;;;4952717;28;20216;-77
2023/04/11 03:55:43;;;;;;;2.22;0.88;;;21.70;99.90;;;;;;4943468;29;20232;-78
2023/04/11 03:58:14;;;;;;;5.05;0.98;;;21.60;99.90;;;;;;4953821;28;20231;-78
2023/04/11 04:00:46;;;;;;;3.38;0.90;;;21.50;99.90;;;;;;4949576;28;20199;-77
2023/04/11 04:03:17;;;;;;;2.53;0.70;;;21.60;99.90;;;;;;4951570;28;20201;-78
2023/04/11 04:05:48;;;;;;;3.67;0.95;;;21.60;99.90;;;;;;4954111;28;20701;-77
2023/04/11 04:08:19;;;;;;;2.05;0.70;;;21.60;99.90;;;;;;4950209;28;20209;-77
2023/04/11 04:10:52;;;;;;;4.60;1.08;;;21.60;99.90;;;;;;4950578;28;20212;-75
2023/04/11 04:13:23;;;;;;;5.35;1.05;;;21.70;99.90;;;;;;4949418;29;20645;-77
2023/04/11 04:15:54;;;;;;;4.47;0.77;;;21.80;99.90;;;;;;4949022;28;20661;-77
2023/04/11 04:18:25;;;;;;;4.43;0.80;;;21.80;99.90;;;;;;4951449;29;20197;-76
2023/04/11 04:20:56;;;;;;;6.85;0.90;;;21.70;99.90;;;;;;4950350;28;20206;-77
2023/04/11 04:23:28;;;;;;;2.55;0.95;;;21.80;99.90;;;;;;4950252;29;20197;-77
2023/04/11 04:26:02;;;;;;;2.70;0.90;;;21.90;99.90;;;;;;4948777;29;20217;-79
2023/04/11 04:28:33;;;;;;;4.50;1.00;;;22.00;99.90;;;;;;4946940;29;20288;-79
2023/04/11 04:31:04;;;;;;;4.43;0.90;;;22.10;99.90;;;;;;4949592;28;20676;-79
2023/04/11 04:33:35;;;;;;;4.07;1.00;;;22.20;99.90;;;;;;4945793;28;20583;-78
2023/04/11 04:36:08;;;;;;;2.78;0.82;;;22.30;99.90;;;;;;4953251;28;20687;-78
2023/04/11 04:38:40;;;;;;;2.92;0.93;;;22.20;99.90;;;;;;4953357;29;20201;-79
2023/04/11 04:41:15;;;;;;;5.15;0.70;;;22.00;99.90;;;;;;4953154;29;20213;-79
2023/04/11 04:43:47;;;;;;;3.58;0.80;;;21.90;99.90;;;;;;4957964;28;20248;-79
2023/04/11 04:46:18;;;;;;;2.45;1.02;;;21.70;99.90;;;;;;4957065;29;20229;-79
2023/04/11 04:48:49;;;;;;;2.25;0.73;;;21.50;99.90;;;;;;4956555;29;20212;-78
2023/04/11 04:51:20;;;;;;;4.15;0.77;;;21.40;99.90;;;;;;4957140;28;20204;-78
2023/04/11 04:53:51;;;;;;;5.63;1.10;;;21.40;99.90;;;;;;4954556;29;20205;-78
2023/04/11 04:56:25;;;;;;;6.28;0.85;;;21.30;99.90;;;;;;4954180;29;20201;-79
2023/04/11 04:58:56;;;;;;;3.15;0.90;;;21.30;99.90;;;;;;4953311;29;20196;-78
2023/04/11 05:01:27;;;;;;;2.60;0.75;;;21.30;99.90;;;;;;4955800;28;20318;-79
2023/04/11 05:03:59;;;;;;;4.30;0.90;;;21.30;99.90;;;;;;4954069;29;20201;-78
2023/04/11 05:06:32;;;;;;;6.30;1.17;;;21.30;99.90;;;;;;4957314;28;20217;-77
2023/04/11 05:09:04;;;;;;;3.08;0.70;;;21.30;99.90;;;;;;4957731;29;20236;-78
2023/04/11 05:11:37;;;;;;;4.25;1.20;;;21.10;99.90;;;;;;4957659;28;20611;-78
2023/04/11 05:14:08;;;;;;;3.60;0.80;;;21.00;99.90;;;;;;4957193;29;20201;-78
2023/04/11 05:16:40;;;;;;;2.60;0.80;;;21.00;99.90;;;;;;4957051;29;20198;-77
2023/04/11 05:19:10;;;;;;;5.05;0.90;;;20.90;99.90;;;;;;4957258;28;20642;-77
2023/04/11 05:21:41;;;;;;;4.95;1.13;;;20.90;99.90;;;;;;4951763;29;20687;-77
2023/04/11 05:24:12;;;;;;;5.63;1.52;;;20.80;99.90;;;;;;4957218;29;20205;-80
2023/04/11 05:26:46;;;;;;;5.47;1.20;;;20.70;99.90;;;;;;4957057;29;20688;-78
2023/04/11 05:32:00;;;;;;;6.45;1.10;;;20.70;99.90;;;;;;4957000;29;20252;-78
2023/04/11 05:34:33;;;;;;;5.18;1.10;;;20.70;99.90;;;;;;4957003;28;20256;-79
2023/04/11 05:37:05;;;;;;;5.47;0.95;;;20.70;99.90;;;;;;4951271;28;20288;-79
2023/04/11 05:39:36;;;;;;;4.65;1.15;;;20.60;99.90;;;;;;4957050;29;20280;-77
2023/04/11 05:42:08;;;;;;;6.72;1.20;;;20.60;99.90;;;;;;4956963;28;20649;-77
2023/04/11 05:44:40;;;;;;;6.85;1.08;;;20.50;99.90;;;;;;4956932;29;20200;-79
2023/04/11 05:47:10;;;;;;;4.13;0.88;;;20.50;99.90;;;;;;4956443;28;20260;-79
2023/04/11 05:49:41;;;;;;;4.18;1.00;;;20.50;99.90;;;;;;4956413;28;20268;-78
2023/04/11 05:52:11;;;;;;;4.57;0.90;;;20.50;99.90;;;;;;4956765;29;20197;-78
2023/04/11 05:54:42;;;;;;;4.50;1.00;;;20.50;99.90;;;;;;4957030;28;20221;-78
2023/04/11 05:57:16;;;;;;;6.75;0.70;;;20.40;99.90;;;;;;4956455;28;20660;-78
2023/04/11 05:59:48;;;;;;;4.07;0.90;;;20.40;99.90;;;;;;4941492;29;20206;-78
2023/04/11 06:02:19;;;;;;;8.13;1.23;;;20.40;99.90;;;;;;4949938;29;20288;-77
2023/04/11 06:04:49;;;;;;;6.75;1.00;;;20.40;99.90;;;;;;4956596;28;20193;-78
2023/04/11 06:07:23;;;;;;;6.90;0.98;;;20.30;99.90;;;;;;4955968;29;20249;-79
2023/04/11 06:09:54;;;;;;;5.57;1.00;;;20.30;99.90;;;;;;4956266;28;20189;-77
2023/04/11 06:12:27;;;;;;;7.13;1.15;;;20.20;99.90;;;;;;4956495;28;20197;-78
2023/04/11 06:14:57;;;;;;;6.53;0.90;;;20.20;99.90;;;;;;4956447;28;20216;-78
2023/04/11 06:17:28;;;;;;;7.70;1.10;;;20.20;99.90;;;;;;4953446;28;20256;-77
2023/04/11 06:20:00;;;;;;;6.20;1.10;;;20.20;99.90;;;;;;4955350;29;20661;-78
2023/04/11 06:22:30;;;;;;;3.88;0.80;;;20.20;99.90;;;;;;4956094;28;20228;-78
2023/04/11 06:25:01;;;;;;;10.40;1.15;;;20.20;99.90;;;;;;4956243;28;20244;-79
2023/04/11 06:27:34;;;;;;;5.25;1.00;;;20.20;99.90;;;;;;4956060;28;20639;-78
2023/04/11 06:30:04;;;;;;;3.80;1.00;;;20.20;99.90;;;;;;4955840;29;20189;-80
2023/04/11 06:32:35;;;;;;;4.65;1.00;;;20.20;99.90;;;;;;4955713;28;20197;-79
2023/04/11 06:35:06;;;;;;;9.43;1.48;;;20.20;99.90;;;;;;4956014;28;20252;-79
2023/04/11 06:37:36;;;;;;;4.93;0.95;;;20.20;99.90;;;;;;4955941;28;20204;-78
2023/04/11 06:40:07;;;;;;;3.70;1.02;;;20.20;99.90;;;;;;4955863;28;20189;-79
2023/04/11 06:42:40;;;;;;;4.05;0.90;;;20.20;99.90;;;;;;4955868;28;20244;-79
2023/04/11 06:45:12;;;;;;;4.75;0.82;;;20.20;99.90;;;;;;4952682;29;20697;-78
2023/04/11 06:47:43;;;;;;;6.15;1.17;;;20.20;99.90;;;;;;4952151;29;20755;-79
2023/04/11 06:50:15;;;;;;;6.30;1.10;;;20.20;99.90;;;;;;4952531;29;20205;-79
2023/04/11 06:52:46;;;;;;;4.45;1.00;;;20.20;99.90;;;;;;4944145;29;20209;-79
2023/04/11 06:55:16;;;;;;;3.83;1.00;;;20.20;99.90;;;;;;4950285;29;20262;-79
2023/04/11 06:57:49;;;;;;;9.55;1.30;;;20.20;99.90;;;;;;4951368;28;20201;-79
2023/04/11 07:00:20;;;;;;;5.70;1.10;;;20.20;99.90;;;;;;4940953;29;20268;-77
2023/04/11 07:02:51;;;;;;;4.25;0.93;;;20.10;99.90;;;;;;4950879;29;20291;-78
2023/04/11 07:05:21;;;;;;;6.13;1.20;;;20.10;99.90;;;;;;4951043;29;20209;-78
2023/04/11 07:07:53;;;;;;;5.40;1.17;;;20.00;99.90;;;;;;4952196;28;20228;-78
2023/04/11 07:10:23;;;;;;;4.53;1.00;;;20.00;99.90;;;;;;4949463;29;20198;-78
2023/04/11 07:12:56;;;;;;;6.97;1.00;;;19.90;99.90;;;;;;4948387;28;20201;-77
2023/04/11 07:15:27;;;;;;;3.72;0.70;;;19.80;99.90;;;;;;4954301;28;20668;-78
2023/04/11 07:17:57;;;;;;;5.25;0.90;;;19.80;99.90;;;;;;4955231;29;20197;-78
2023/04/11 07:20:29;;;;;;;3.28;0.80;;;19.70;99.90;;;;;;4953524;29;20197;-79
2023/04/11 07:23:01;;;;;;;2.83;0.80;;;19.70;99.90;;;;;;4955260;29;20260;-78
2023/04/11 07:25:32;;;;;;;3.92;0.70;;;19.60;99.90;;;;;;4955197;28;20228;-79
2023/04/11 07:28:07;;;;;;;2.80;0.57;;;19.60;99.90;;;;;;4954251;29;20715;-78
2023/04/11 07:30:38;;;;;;;3.17;0.70;;;19.60;99.90;;;;;;4935880;29;20200;-77
2023/04/11 07:33:09;;;;;;;3.58;0.70;;;19.50;99.90;;;;;;4936440;29;20634;-79
2023/04/11 07:35:40;;;;;;;4.68;0.73;;;19.40;99.90;;;;;;4942622;29;20662;-78
2023/04/11 07:38:11;;;;;;;2.53;0.88;;;19.40;99.90;;;;;;4945861;29;20222;-77
2023/04/11 07:40:42;;;;;;;5.15;0.90;;;19.40;99.90;;;;;;4950586;28;20201;-78
2023/04/11 07:43:15;;;;;;;3.03;0.65;;;19.30;99.90;;;;;;4952487;28;20201;-78
2023/04/11 07:45:46;;;;;;;4.32;0.70;;;19.30;99.90;;;;;;4952626;28;20193;-78
2023/04/11 07:48:17;;;;;;;4.50;0.80;;;19.30;99.90;;;;;;4950611;28;20212;-79
2023/04/11 07:50:49;;;;;;;2.05;0.52;;;19.20;99.90;;;;;;4948818;28;20205;-78
2023/04/11 07:53:20;;;;;;;3.97;0.70;;;19.20;99.90;;;;;;4952373;28;20222;-78
2023/04/11 07:55:51;;;;;;;3.70;0.70;;;19.10;99.90;;;;;;4950047;29;20227;-79
2023/04/11 07:58:24;;;;;;;3.38;0.80;;;19.00;99.90;;;;;;4954363;28;20211;-78
2023/04/11 08:00:58;;;;;;;3.72;1.10;;;19.00;99.90;;;;;;4951841;29;20565;-78
2023/04/11 08:03:29;;;;;;;2.58;0.77;;;19.00;99.90;;;;;;4952517;28;20201;-78
2023/04/11 08:06:00;;;;;;;8.35;1.10;;;19.00;99.90;;;;;;4952648;28;20200;-78
2023/04/11 08:08:32;;;;;;;3.33;0.90;;;18.90;99.90;;;;;;4953742;28;20228;-79
2023/04/11 08:11:03;;;;;;;3.63;0.75;;;18.90;99.90;;;;;;4955951;28;20200;-78
2023/04/11 08:13:36;;;;;;;2.60;0.70;;;18.90;99.90;;;;;;4954125;28;20209;-77
2023/04/11 08:16:08;;;;;;;3.08;0.80;;;18.90;99.90;;;;;;4957157;28;20208;-78
2023/04/11 08:18:40;;;;;;;5.10;0.95;;;18.90;99.90;;;;;;4956090;28;20201;-79
2023/04/11 08:21:12;;;;;;;2.28;0.77;;;18.80;99.90;;;;;;4957205;28;20197;-78
2023/04/11 08:23:43;;;;;;;2.15;0.60;;;18.80;99.90;;;;;;4957373;28;20212;-79
2023/04/11 08:26:15;;;;;;;4.50;0.90;;;18.80;99.90;;;;;;4958145;28;20205;-78
2023/04/11 08:28:48;;;;;;;6.05;1.10;;;18.80;99.90;;;;;;4956137;28;20225;-79
2023/04/11 08:31:19;;;;;;;4.00;1.10;;;18.80;99.90;;;;;;4954961;29;20212;-78
2023/04/11 08:33:50;;;;;;;5.13;1.20;;;18.70;99.90;;;;;;4955599;28;20197;-78
2023/04/11 08:36:22;;;;;;;4.63;0.95;;;18.70;99.90;;;;;;4955970;29;20205;-78
2023/04/11 08:38:54;;;;;;;4.50;1.00;;;18.70;99.90;;;;;;4947372;29;20208;-78
2023/04/11 08:41:29;;;;;;;2.95;1.10;;;18.60;99.90;;;;;;4956890;28;20240;-78
2023/04/11 08:44:02;;;;;;;3.92;0.95;;;18.60;99.90;;;;;;4954677;29;20649;-78
2023/04/11 08:46:41;;;;;;;4.00;1.00;;;18.60;99.90;;;;;;4956925;28;20673;-79
2023/04/11 08:49:12;;;;;;;4.47;1.30;;;18.60;99.90;;;;;;4958011;29;20209;-79
2023/04/11 08:51:45;;;;;;;3.33;0.90;;;18.60;99.90;;;;;;4956743;28;20235;-79
2023/04/11 08:54:17;;;;;;;4.68;1.10;;;18.60;99.90;;;;;;4950737;28;20221;-79
2023/04/11 08:56:48;;;;;;;2.72;0.85;;;18.60;99.90;;;;;;4956863;29;20201;-79
2023/04/11 08:59:21;;;;;;;6.78;1.08;;;18.70;99.90;;;;;;4953143;28;20208;-79
2023/04/11 09:01:52;;;;;;;3.40;0.85;;;18.60;99.90;;;;;;4956154;29;20232;-79
2023/04/11 09:04:23;;;;;;;5.38;1.33;;;18.60;99.90;;;;;;4952835;28;20208;-79
2023/04/11 09:06:59;;;;;;;2.55;1.05;;;18.50;99.90;;;;;;4956079;28;20213;-79
2023/04/11 09:09:33;;;;;;;6.05;1.40;;;18.50;99.90;;;;;;4956875;29;20252;-79
2023/04/11 09:12:05;;;;;;;4.50;1.40;;;18.50;99.90;;;;;;4956417;28;20232;-79
2023/04/11 09:14:38;;;;;;;4.53;1.35;;;18.40;99.90;;;;;;4949399;29;20208;-79
2023/04/11 09:17:12;;;;;;;6.50;1.50;;;18.40;99.90;;;;;;4956418;29;20577;-79
2023/04/11 09:19:43;;;;;;;5.05;1.65;;;18.40;99.90;;;;;;4955514;29;20267;-78
2023/04/11 09:22:15;;;;;;;5.13;1.60;;;18.30;99.90;;;;;;4954730;28;20208;-79
2023/04/11 09:25:02;;;;;;;3.35;1.50;;;18.30;99.90;;;;;;4955897;28;20197;-78
2023/04/11 09:27:34;;;;;;;5.28;1.40;;;18.30;99.90;;;;;;4949565;29;20701;-79
2023/04/11 09:30:07;;;;;;;4.72;1.60;;;18.30;99.90;;;;;;4957289;28;20645;-79
2023/04/11 09:32:38;;;;;;;6.65;1.80;;;18.20;99.90;;;;;;4956792;28;20205;-78
2023/04/11 09:35:14;;;;;;;7.63;2.03;;;18.20;99.90;;;;;;4954280;28;20208;-79
2023/04/11 09:37:49;;;;;;;5.53;1.73;;;18.20;99.90;;;;;;4956555;28;20700;-79
2023/04/11 09:40:23;;;;;;;4.93;1.83;;;18.20;99.90;;;;;;4955053;28;20196;-79
2023/04/11 09:43:01;;;;;;;6.82;1.60;;;18.20;99.90;;;;;;4955673;28;20664;-78
2023/04/11 09:45:34;;;;;;;6.45;1.77;;;18.30;99.90;;;;;;4956650;28;20210;-79
2023/04/11 09:48:05;;;;;;;3.88;1.67;;;18.20;99.90;;;;;;4956333;28;20220;-79
2023/04/11 09:50:37;;;;;;;5.72;1.83;;;18.20;99.90;;;;;;4955826;29;20201;-80
2023/04/11 09:53:09;;;;;;;5.60;1.80;;;18.20;99.90;;;;;;4955192;29;20781;-79
2023/04/11 09:55:41;;;;;;;5.50;1.90;;;18.20;99.90;;;;;;4955177;28;20231;-80
2023/04/11 09:58:14;;;;;;;4.05;1.80;;;18.20;99.90;;;;;;4955551;28;20204;-79
2023/04/11 10:00:49;;;;;;;8.50;2.20;;;18.20;99.90;;;;;;4955441;28;20205;-79
2023/04/11 10:03:22;;;;;;;5.93;1.92;;;18.20;99.90;;;;;;4944480;28;20208;-78
2023/04/11 10:05:57;;;;;;;5.78;1.92;;;18.20;99.90;;;;;;4941635;29;20205;-78
2023/04/11 10:08:32;;;;;;;6.93;2.05;;;18.20;99.90;;;;;;4953974;28;20220;-79
2023/04/11 10:11:06;;;;;;;6.20;1.80;;;18.10;99.90;;;;;;4950454;28;20244;-78
2023/04/11 10:13:44;;;;;;;7.97;2.10;;;18.10;99.90;;;;;;4955844;29;20284;-79
2023/04/11 10:16:18;;;;;;;6.05;2.00;;;18.10;99.90;;;;;;4955659;28;20679;-78
2023/04/11 10:19:26;;;;;;;6.93;2.08;;;18.10;99.90;;;;;;4954747;28;20563;-80
2023/04/11 10:21:57;;;;;;;8.43;2.38;;;18.10;99.90;;;;;;4947246;28;20215;-81
2023/04/11 10:24:28;;;;;;;5.57;2.15;;;18.10;99.90;;;;;;4951113;29;20196;-78
2023/04/11 10:27:02;;;;;;;4.15;1.80;;;18.10;99.90;;;;;;4951050;28;20231;-80
2023/04/11 10:29:52;;;;;;;6.30;2.20;;;18.00;99.90;;;;;;4952838;29;20204;-79
2023/04/11 10:32:26;;;;;;;8.30;2.08;;;18.00;99.90;;;;;;4951311;28;20263;-78
2023/04/11 10:35:32;;;;;;;6.72;2.10;;;18.00;99.90;;;;;;4955081;29;20680;-79
2023/04/11 10:38:03;;;;;;;6.50;2.00;;;18.00;99.90;;;;;;4954604;28;20208;-80
2023/04/11 10:40:34;;;;;;;8.10;2.33;;;18.00;99.90;;;;;;4954883;28;20209;-78
2023/04/11 10:43:22;;;;;;;6.22;2.17;;;17.90;99.90;;;;;;4954965;28;20298;-78
2023/04/11 10:46:22;;;;;;;6.15;2.20;;;17.90;99.90;;;;;;4954653;28;20201;-80
2023/04/11 10:49:03;;;;;;;7.85;2.42;;;17.90;99.90;;;;;;4955509;29;20228;-79
2023/04/11 10:51:35;;;;;;;6.75;2.55;;;17.90;99.90;;;;;;4953327;29;20210;-80
2023/04/11 10:54:06;;;;;;;9.07;2.83;;;17.90;99.90;;;;;;4954318;28;20229;-80
2023/04/11 10:56:58;;;;;;;6.50;2.30;;;17.80;99.90;;;;;;4954575;28;20204;-78
2023/04/11 11:00:13;;;;;;;6.60;2.20;;;17.80;99.90;;;;;;4964983;28;20278;-80
2023/04/11 11:02:44;;;;;;;10.98;2.38;;;17.80;99.90;;;;;;4936279;29;20245;-78
2023/04/11 11:05:25;;;;;;;5.20;2.30;;;17.80;99.90;;;;;;4949007;29;20546;-78
2023/04/11 11:07:56;;;;;;;7.80;2.10;;;17.70;99.90;;;;;;4951700;29;20273;-79
2023/04/11 11:10:42;;;;;;;7.45;2.28;;;17.70;99.90;;;;;;4955272;28;20204;-78
2023/04/11 11:13:14;;;;;;;7.00;2.35;;;17.70;99.90;;;;;;4955339;29;20205;-80
2023/04/11 11:15:50;;;;;;;6.20;2.15;;;17.60;99.90;;;;;;4955403;29;20556;-81
2023/04/11 11:18:21;;;;;;;5.43;2.17;;;17.60;99.90;;;;;;4955411;29;20189;-80
2023/04/11 11:20:57;;;;;;;4.30;1.90;;;17.60;99.90;;;;;;4955435;29;20193;-79
2023/04/11 11:23:29;;;;;;;5.97;2.10;;;17.50;99.90;;;;;;4954862;28;20201;-80
2023/04/11 11:26:02;;;;;;;6.07;1.90;;;17.50;99.90;;;;;;4951324;29;20197;-79
2023/04/11 11:28:33;;;;;;;3.95;1.70;;;17.50;99.90;;;;;;4935972;29;20218;-80
2023/04/11 11:31:04;;;;;;;5.25;1.88;;;17.40;99.90;;;;;;4936067;29;20202;-80
2023/04/11 11:33:41;;;;;;;7.20;1.90;;;17.40;99.90;;;;;;4936412;29;20197;-80
2023/04/11 11:36:15;;;;;;;6.85;2.03;;;17.40;99.90;;;;;;4954894;29;20552;-80
2023/04/11 11:38:46;;;;;;;7.30;1.90;;;17.40;99.90;;;;;;4955027;29;20196;-80
2023/04/11 11:41:19;;;;;;;6.05;1.52;;;17.40;99.90;;;;;;4955202;28;20200;-81
2023/04/11 11:43:50;;;;;;;4.70;1.80;;;17.40;99.90;;;;;;4955195;28;20200;-80
2023/04/11 11:46:21;;;;;;;6.07;1.50;;;17.30;99.90;;;;;;4958688;29;20591;-81
2023/04/11 11:49:02;;;;;;;4.13;1.83;;;17.30;99.90;;;;;;4957208;28;20684;-79
2023/04/11 11:51:46;;;;;;;6.57;1.90;;;17.20;99.90;;;;;;4956764;29;20209;-81
2023/04/11 11:54:17;;;;;;;6.28;1.83;;;17.20;99.90;;;;;;4948260;29;20225;-80
2023/04/11 11:56:53;;;;;;;3.95;1.58;;;17.10;99.90;;;;;;4958988;28;20197;-80
2023/04/11 11:59:30;;;;;;;5.32;1.90;;;17.10;99.90;;;;;;4947029;28;20207;-80
2023/04/11 12:02:01;;;;;;;4.95;1.85;;;17.10;99.90;;;;;;4958815;29;20236;-80
2023/04/11 12:04:34;;;;;;;5.03;2.10;;;17.00;99.90;;;;;;4958916;28;20649;-80
2023/04/11 12:07:13;;;;;;;6.60;1.98;;;17.00;99.90;;;;;;4958650;29;20611;-80
2023/04/11 12:09:44;;;;;;;4.50;1.60;;;17.10;99.90;;;;;;4958466;29;20227;-80
2023/04/11 12:12:18;;;;;;;3.75;1.65;;;17.00;99.90;;;;;;4958726;29;20201;-80
2023/04/11 12:14:56;;;;;;;6.22;2.00;;;17.00;99.90;;;;;;4958713;28;20197;-80
2023/04/11 12:17:27;;;;;;;4.10;1.55;;;17.00;99.90;;;;;;4956796;28;20201;-80
2023/04/11 12:19:59;;;;;;;5.63;1.83;;;17.00;99.90;;;;;;4955522;29;20207;-79
2023/04/11 12:22:32;;;;;;;6.22;1.80;;;17.00;99.90;;;;;;4956736;28;20216;-80
2023/04/11 12:25:08;;;;;;;4.05;1.73;;;17.00;99.90;;;;;;4952998;28;20197;-80
2023/04/11 12:27:40;;;;;;;4.90;1.65;;;16.90;99.90;;;;;;4952704;29;20606;-80
2023/04/11 12:30:13;;;;;;;4.20;1.70;;;17.00;99.90;;;;;;4957594;29;20248;-80
2023/04/11 12:32:45;;;;;;;4.63;2.03;;;16.90;99.90;;;;;;4957626;28;20205;-80
2023/04/11 12:35:16;;;;;;;7.00;2.22;;;16.90;99.90;;;;;;4957207;28;20205;-80
2023/04/11 12:37:49;;;;;;;7.05;2.42;;;16.90;99.90;;;;;;4956994;28;20197;-80
2023/04/11 12:40:20;;;;;;;6.85;2.42;;;16.90;99.90;;;;;;4956568;28;20197;-80
2023/04/11 12:42:51;;;;;;;5.00;2.00;;;16.90;99.90;;;;;;4954842;29;20209;-80
2023/04/11 12:45:23;;;;;;;5.50;1.70;;;16.90;99.90;;;;;;4957029;28;20197;-81
2023/04/11 12:47:54;;;;;;;5.88;1.42;;;16.80;99.90;;;;;;4955877;28;20201;-80
2023/04/11 12:50:25;;;;;;;7.00;1.70;;;16.80;99.90;;;;;;4945620;29;20197;-80
2023/04/11 12:52:58;;;;;;;4.65;1.58;;;16.80;99.90;;;;;;4956840;29;20661;-78
2023/04/11 12:55:29;;;;;;;3.25;1.30;;;16.80;99.90;;;;;;4957615;28;20684;-80
2023/04/11 12:58:00;;;;;;;3.45;1.08;;;16.80;99.90;;;;;;4957613;28;20244;-80
2023/04/11 13:00:32;;;;;;;4.95;1.30;;;16.80;99.90;;;;;;4957786;29;20660;-80
2023/04/11 13:03:03;;;;;;;3.83;1.00;;;16.80;99.90;;;;;;4957711;28;20233;-80
2023/04/11 13:05:35;;;;;;;4.97;1.20;;;16.70;99.90;;;;;;4957873;28;20197;-80
2023/04/11 13:08:09;;;;;;;2.70;1.08;;;16.70;99.90;;;;;;4957572;29;20217;-79
2023/04/11 13:10:40;;;;;;;2.92;1.10;;;16.70;99.90;;;;;;4957556;29;20587;-80
2023/04/11 13:13:11;;;;;;;3.13;1.20;;;16.70;99.90;;;;;;4957859;28;20637;-80
2023/04/11 13:15:42;;;;;;;2.58;1.00;;;16.70;99.90;;;;;;4957685;28;20193;-80
2023/04/11 13:18:13;;;;;;;3.05;1.42;;;16.60;99.90;;;;;;4957122;28;20204;-80